PWSweather.com
Personal Weather Stations
Station Observations
SHAHALMS1
Eftra, Falkenberg, HA

EftraFalkenberg, HA

Lat: 56.85, Lon: 12.65

Elevation: 140

Station Type:

http://hem.passagen.se/risarp101

High Low Average
Temperature 67.1°F19.5°F 52.5°F11.4°F 60.2°F15.7°F
Dew Point 62.1°F16.7°F 48.8°F9.3°F 54.8°F12.7°F
Winds 8.0 mph -12.9 mph - Calm Calm 3.2 mph 5.1 mph
Wind Gusts 17.2 mph27.7 mph -- 8.5 mph13.7 mph
Humidity 94% 67% 83%
Pressure 30.18 in1022.00 in 29.95 in1014.20 in -
Precipitation 4.57 in116.10 in - -
Hour Temp Dew Point Humidity Winds Wind Gusts Pressure Precip Precip Rate Daily Precip Total
12:00 AM 60.4°F15.8°C 55.6°F13.1°C 84% 5.2 mph WSW8.4 kmh WSW 12.9 mph20.8 kmh 29.95 in1014.2 mb 0.00 in0.0 mm 0.00 in0.0 mm 0.00 in0.0 mm
12:10 AM 60.6°F15.9°C 55.8°F13.2°C 84% 5.5 mph WSW8.9 kmh WSW 16.1 mph25.9 kmh 29.95 in1014.2 mb 0.00 in0.0 mm 0.00 in0.0 mm 0.00 in0.0 mm
12:20 AM 60.4°F15.8°C 55.6°F13.1°C 84% 4.2 mph WSW6.8 kmh WSW 7.9 mph12.7 kmh 29.95 in1014.2 mb 0.00 in0.0 mm 0.00 in0.0 mm 0.00 in0.0 mm
12:30 AM 60.4°F15.8°C 55.6°F13.1°C 84% 4.1 mph SW6.6 kmh SW 9.7 mph15.6 kmh 29.95 in1014.2 mb 0.00 in0.0 mm 0.00 in0.0 mm 0.00 in0.0 mm
12:40 AM 60.4°F15.8°C 55.6°F13.1°C 84% 5.1 mph W8.2 kmh W 9.7 mph15.6 kmh 29.98 in1015.2 mb 0.00 in0.0 mm 0.00 in0.0 mm 0.00 in0.0 mm
12:50 AM 60.4°F15.8°C 55.3°F12.9°C 83% 5.2 mph WSW8.4 kmh WSW 8.9 mph14.3 kmh 29.98 in1015.2 mb 0.00 in0.0 mm 0.00 in0.0 mm 0.00 in0.0 mm
01:00 AM 60.3°F15.7°C 55.1°F12.8°C 83% 4.5 mph WSW7.2 kmh WSW 11.5 mph18.5 kmh 29.98 in1015.2 mb 0.00 in0.0 mm 0.00 in0.0 mm 0.00 in0.0 mm
01:10 AM 60.1°F15.6°C 54.9°F12.7°C 83% 3.1 mph WSW5.0 kmh WSW 6.8 mph10.9 kmh 29.98 in1015.2 mb 0.00 in0.0 mm 0.00 in0.0 mm 0.00 in0.0 mm
01:20 AM 59.9°F15.5°C 54.7°F12.6°C 83% 3.4 mph WNW5.5 kmh WNW 9.7 mph15.6 kmh 29.98 in1015.2 mb 0.00 in0.0 mm 0.00 in0.0 mm 0.00 in0.0 mm
01:30 AM 59.7°F15.4°C 54.5°F12.5°C 83% 3.1 mph W5.0 kmh W 10.0 mph16.1 kmh 30.01 in1016.3 mb 0.00 in0.0 mm 0.00 in0.0 mm 0.00 in0.0 mm
01:40 AM 59.7°F15.4°C 54.5°F12.5°C 83% 3.1 mph WSW5.0 kmh WSW 10.7 mph17.2 kmh 30.01 in1016.3 mb 0.00 in0.0 mm 0.00 in0.0 mm 0.00 in0.0 mm
01:50 AM 59.5°F15.3°C 54.4°F12.4°C 83% 2.9 mph WSW4.7 kmh WSW 10.7 mph17.2 kmh 30.01 in1016.3 mb 0.00 in0.0 mm 0.00 in0.0 mm 0.00 in0.0 mm
02:00 AM 59.7°F15.4°C 54.9°F12.7°C 84% 3.4 mph SW5.5 kmh SW 8.6 mph13.8 kmh 29.98 in1015.2 mb 0.00 in0.0 mm 0.00 in0.0 mm 0.00 in0.0 mm
02:10 AM 59.7°F15.4°C 54.5°F12.5°C 83% 3.7 mph W6.0 kmh W 9.3 mph15.0 kmh 29.98 in1015.2 mb 0.00 in0.0 mm 0.00 in0.0 mm 0.00 in0.0 mm
02:20 AM 59.7°F15.4°C 54.5°F12.5°C 83% 4.1 mph WSW6.6 kmh WSW 12.2 mph19.6 kmh 30.01 in1016.3 mb 0.00 in0.0 mm 0.00 in0.0 mm 0.00 in0.0 mm
02:30 AM 59.7°F15.4°C 54.5°F12.5°C 83% 3.3 mph SW5.3 kmh SW 8.6 mph13.8 kmh 30.01 in1016.3 mb 0.00 in0.0 mm 0.00 in0.0 mm 0.00 in0.0 mm
02:40 AM 59.5°F15.3°C 54.4°F12.4°C 83% 4.4 mph WSW7.1 kmh WSW 11.5 mph18.5 kmh 30.01 in1016.3 mb 0.00 in0.0 mm 0.00 in0.0 mm 0.00 in0.0 mm
02:50 AM 59.7°F15.4°C 54.9°F12.7°C 84% 4.3 mph WSW6.9 kmh WSW 16.5 mph26.6 kmh 30.01 in1016.3 mb 0.00 in0.0 mm 0.00 in0.0 mm 0.00 in0.0 mm
03:00 AM 59.5°F15.3°C 55.0°F12.8°C 85% 4.9 mph WSW7.9 kmh WSW 17.2 mph27.7 kmh 30.01 in1016.3 mb 0.00 in0.0 mm 0.00 in0.0 mm 0.00 in0.0 mm
03:10 AM 59.0°F15.0°C 54.2°F12.3°C 84% 4.0 mph SW6.4 kmh SW 10.0 mph16.1 kmh 30.01 in1016.3 mb 0.00 in0.0 mm 0.00 in0.0 mm 0.00 in0.0 mm
03:20 AM 58.6°F14.8°C 53.8°F12.1°C 84% 3.4 mph S5.5 kmh S 9.7 mph15.6 kmh 30.01 in1016.3 mb 0.00 in0.0 mm 0.00 in0.0 mm 0.00 in0.0 mm
03:30 AM 58.3°F14.6°C 53.8°F12.1°C 85% 1.9 mph SW3.1 kmh SW 7.5 mph12.1 kmh 30.04 in1017.3 mb 0.00 in0.0 mm 0.00 in0.0 mm 0.00 in0.0 mm
03:40 AM 58.3°F14.6°C 53.8°F12.1°C 85% 1.6 mph WSW2.6 kmh WSW 5.0 mph8.0 kmh 30.04 in1017.3 mb 0.00 in0.0 mm 0.00 in0.0 mm 0.00 in0.0 mm
03:50 AM 58.3°F14.6°C 54.1°F12.3°C 86% 2.9 mph W4.7 kmh W 9.7 mph15.6 kmh 30.01 in1016.3 mb 0.00 in0.0 mm 0.00 in0.0 mm 0.00 in0.0 mm
04:00 AM 58.3°F14.6°C 54.1°F12.3°C 86% 1.7 mph WSW2.7 kmh WSW 5.0 mph8.0 kmh 30.01 in1016.3 mb 0.00 in0.0 mm 0.00 in0.0 mm 0.00 in0.0 mm
04:10 AM 58.1°F14.5°C 54.2°F12.3°C 87% 2.6 mph WSW4.2 kmh WSW 5.0 mph8.0 kmh 30.01 in1016.3 mb 0.00 in0.0 mm 0.00 in0.0 mm 0.00 in0.0 mm
04:20 AM 58.3°F14.6°C 54.4°F12.4°C 87% 3.3 mph W5.3 kmh W 9.7 mph15.6 kmh 30.04 in1017.3 mb 0.00 in0.0 mm 0.00 in0.0 mm 0.00 in0.0 mm
04:30 AM 58.5°F14.7°C 54.6°F12.6°C 87% 1.9 mph W3.1 kmh W 6.8 mph10.9 kmh 30.01 in1016.3 mb 0.00 in0.0 mm 0.00 in0.0 mm 0.00 in0.0 mm
04:40 AM 58.5°F14.7°C 54.6°F12.6°C 87% 1.6 mph SW2.6 kmh SW 4.7 mph7.6 kmh 29.98 in1015.2 mb 0.00 in0.0 mm 0.00 in0.0 mm 0.00 in0.0 mm
04:50 AM 58.5°F14.7°C 54.6°F12.6°C 87% 2.2 mph WSW3.5 kmh WSW 6.1 mph9.8 kmh 29.98 in1015.2 mb 0.00 in0.0 mm 0.00 in0.0 mm 0.00 in0.0 mm
05:00 AM 58.5°F14.7°C 54.6°F12.6°C 87% 2.4 mph W3.9 kmh W 4.7 mph7.6 kmh 30.01 in1016.3 mb 0.00 in0.0 mm 0.00 in0.0 mm 0.00 in0.0 mm
05:10 AM 58.5°F14.7°C 54.6°F12.6°C 87% 0.8 mph S1.3 kmh S 4.3 mph6.9 kmh 30.01 in1016.3 mb 0.00 in0.0 mm 0.00 in0.0 mm 0.00 in0.0 mm
05:20 AM 58.5°F14.7°C 54.6°F12.6°C 87% Calm Calm -- 30.01 in1016.3 mb 0.00 in0.0 mm 0.00 in0.0 mm 0.00 in0.0 mm
05:30 AM 58.5°F14.7°C 54.6°F12.6°C 87% 0.5 mph S0.8 kmh S 4.3 mph6.9 kmh 30.01 in1016.3 mb 0.00 in0.0 mm 0.00 in0.0 mm 0.00 in0.0 mm
05:40 AM 58.5°F14.7°C 54.6°F12.6°C 87% 1.5 mph S2.4 kmh S 5.0 mph8.0 kmh 30.01 in1016.3 mb 0.00 in0.0 mm 0.00 in0.0 mm 0.00 in0.0 mm
05:50 AM 58.6°F14.8°C 54.8°F12.7°C 87% 0.4 mph W0.6 kmh W 3.2 mph5.1 kmh 30.01 in1016.3 mb 0.00 in0.0 mm 0.00 in0.0 mm 0.00 in0.0 mm
06:00 AM 58.6°F14.8°C 54.8°F12.7°C 87% Calm Calm -- 30.01 in1016.3 mb 0.00 in0.0 mm 0.00 in0.0 mm 0.00 in0.0 mm
06:10 AM 59.0°F15.0°C 55.1°F12.8°C 87% Calm Calm -- 30.01 in1016.3 mb 0.00 in0.0 mm 0.00 in0.0 mm 0.00 in0.0 mm
06:20 AM 59.0°F15.0°C 55.1°F12.8°C 87% Calm Calm -- 30.04 in1017.3 mb 0.00 in0.0 mm 0.00 in0.0 mm 0.00 in0.0 mm
06:30 AM 59.4°F15.2°C 55.5°F13.1°C 87% 1.3 mph WSW2.1 kmh WSW 7.5 mph12.1 kmh 30.04 in1017.3 mb 0.00 in0.0 mm 0.00 in0.0 mm 0.00 in0.0 mm
06:40 AM 59.9°F15.5°C 56.0°F13.3°C 87% 0.5 mph W0.8 kmh W 1.8 mph2.9 kmh 30.04 in1017.3 mb 0.00 in0.0 mm 0.00 in0.0 mm 0.00 in0.0 mm
06:50 AM 60.1°F15.6°C 56.2°F13.4°C 87% 1.2 mph SSW1.9 kmh SSW 2.5 mph4.0 kmh 30.04 in1017.3 mb 0.00 in0.0 mm 0.00 in0.0 mm 0.00 in0.0 mm
07:00 AM 60.4°F15.8°C 56.2°F13.4°C 86% 2.4 mph S3.9 kmh S 6.1 mph9.8 kmh 30.04 in1017.3 mb 0.00 in0.0 mm 0.00 in0.0 mm 0.00 in0.0 mm
07:10 AM 60.6°F15.9°C 56.1°F13.4°C 85% 2.4 mph S3.9 kmh S 6.1 mph9.8 kmh 30.04 in1017.3 mb 0.00 in0.0 mm 0.00 in0.0 mm 0.00 in0.0 mm
07:20 AM 61.2°F16.2°C 56.6°F13.7°C 85% 1.5 mph W2.4 kmh W 4.7 mph7.6 kmh 30.04 in1017.3 mb 0.00 in0.0 mm 0.00 in0.0 mm 0.00 in0.0 mm
07:30 AM 61.3°F16.3°C 56.5°F13.6°C 84% 0.8 mph S1.3 kmh S 6.8 mph10.9 kmh 30.04 in1017.3 mb 0.00 in0.0 mm 0.00 in0.0 mm 0.00 in0.0 mm
07:40 AM 61.7°F16.5°C 56.8°F13.8°C 84% 0.6 mph S1.0 kmh S 3.9 mph6.3 kmh 30.04 in1017.3 mb 0.00 in0.0 mm 0.00 in0.0 mm 0.00 in0.0 mm
07:50 AM 61.3°F16.3°C 56.1°F13.4°C 83% 1.4 mph S2.3 kmh S 5.4 mph8.7 kmh 30.04 in1017.3 mb 0.00 in0.0 mm 0.00 in0.0 mm 0.00 in0.0 mm
08:00 AM 61.2°F16.2°C 55.6°F13.1°C 82% Calm Calm -- 30.07 in1018.3 mb 0.00 in0.0 mm 0.00 in0.0 mm 0.00 in0.0 mm
08:10 AM 61.0°F16.1°C 55.4°F13.0°C 82% 0.7 mph S1.1 kmh S 3.2 mph5.1 kmh 30.07 in1018.3 mb 0.00 in0.0 mm 0.00 in0.0 mm 0.00 in0.0 mm
08:20 AM 61.0°F16.1°C 55.4°F13.0°C 82% 3.8 mph S6.1 kmh S 8.6 mph13.8 kmh 30.07 in1018.3 mb 0.00 in0.0 mm 0.00 in0.0 mm 0.00 in0.0 mm
08:30 AM 60.3°F15.7°C 54.7°F12.6°C 82% 5.0 mph SSE8.0 kmh SSE 9.7 mph15.6 kmh 30.07 in1018.3 mb 0.00 in0.0 mm 0.00 in0.0 mm 0.00 in0.0 mm
08:40 AM 59.9°F15.5°C 54.7°F12.6°C 83% 6.1 mph SE9.8 kmh SE 10.4 mph16.7 kmh 30.07 in1018.3 mb 0.00 in0.0 mm 0.00 in0.0 mm 0.00 in0.0 mm
08:50 AM 59.5°F15.3°C 54.7°F12.6°C 84% 8.0 mph SE12.9 kmh SE 10.0 mph16.1 kmh 30.07 in1018.3 mb 0.00 in0.0 mm 0.00 in0.0 mm 0.00 in0.0 mm
09:00 AM 59.2°F15.1°C 54.3°F12.4°C 84% 7.6 mph S12.2 kmh S 10.0 mph16.1 kmh 30.07 in1018.3 mb 0.00 in0.0 mm 0.00 in0.0 mm 0.00 in0.0 mm
09:10 AM 58.6°F14.8°C 54.1°F12.3°C 85% 6.5 mph SE10.5 kmh SE 9.7 mph15.6 kmh 30.07 in1018.3 mb 0.00 in0.0 mm 0.00 in0.0 mm 0.00 in0.0 mm
09:20 AM 58.3°F14.6°C 54.1°F12.3°C 86% 5.8 mph SE9.3 kmh SE 9.7 mph15.6 kmh 30.07 in1018.3 mb 0.00 in0.0 mm 0.00 in0.0 mm 0.00 in0.0 mm
09:30 AM 58.3°F14.6°C 54.4°F12.4°C 87% 5.0 mph SSE8.0 kmh SSE 9.7 mph15.6 kmh 30.07 in1018.3 mb 0.00 in0.0 mm 0.00 in0.0 mm 0.00 in0.0 mm
09:40 AM 58.6°F14.8°C 55.1°F12.8°C 88% 4.0 mph S6.4 kmh S 7.9 mph12.7 kmh 30.09 in1019.0 mb 0.00 in0.0 mm 0.00 in0.0 mm 0.00 in0.0 mm
09:50 AM 58.6°F14.8°C 55.4°F13.0°C 89% 4.9 mph S7.9 kmh S 9.7 mph15.6 kmh 30.09 in1019.0 mb 0.00 in0.0 mm 0.00 in0.0 mm 0.00 in0.0 mm
10:00 AM 58.6°F14.8°C 55.1°F12.8°C 88% 5.1 mph S8.2 kmh S 9.7 mph15.6 kmh 30.04 in1017.3 mb 0.00 in0.0 mm 0.00 in0.0 mm 0.00 in0.0 mm
10:10 AM 58.5°F14.7°C 54.9°F12.7°C 88% 6.7 mph S10.8 kmh S 12.5 mph20.1 kmh 30.07 in1018.3 mb 0.00 in0.0 mm 0.00 in0.0 mm 0.00 in0.0 mm
10:20 AM 58.3°F14.6°C 54.7°F12.6°C 88% 5.2 mph S8.4 kmh S 16.5 mph26.6 kmh 30.07 in1018.3 mb 0.00 in0.0 mm 0.00 in0.0 mm 0.00 in0.0 mm
10:30 AM 58.6°F14.8°C 55.1°F12.8°C 88% 4.5 mph S7.2 kmh S 10.4 mph16.7 kmh 30.04 in1017.3 mb 0.00 in0.0 mm 0.00 in0.0 mm 0.00 in0.0 mm
10:40 AM 58.6°F14.8°C 55.4°F13.0°C 89% 5.1 mph S8.2 kmh S 9.3 mph15.0 kmh 30.04 in1017.3 mb 0.06 in1.5 mm 0.36 in9.1 mm 0.06 in1.5 mm
10:50 AM 58.5°F14.7°C 55.2°F12.9°C 89% 5.0 mph S8.0 kmh S 11.8 mph19.0 kmh 30.07 in1018.3 mb 0.06 in1.5 mm 0.00 in0.0 mm 0.06 in1.5 mm
11:00 AM 58.3°F14.6°C 55.1°F12.8°C 89% 3.7 mph S6.0 kmh S 10.7 mph17.2 kmh 30.07 in1018.3 mb 0.15 in3.8 mm 0.11 in2.8 mm 0.15 in3.8 mm
11:10 AM 58.3°F14.6°C 55.4°F13.0°C 90% 3.1 mph SE5.0 kmh SE 10.4 mph16.7 kmh 30.07 in1018.3 mb 0.19 in4.8 mm 0.24 in6.1 mm 0.20 in5.1 mm
11:20 AM 58.1°F14.5°C 55.2°F12.9°C 90% 2.8 mph SW4.5 kmh SW 7.9 mph12.7 kmh 30.07 in1018.3 mb 0.48 in12.2 mm 1.74 in44.2 mm 0.48 in12.2 mm
11:30 AM 58.3°F14.6°C 55.7°F13.2°C 91% 2.6 mph SSW4.2 kmh SSW 10.7 mph17.2 kmh 30.07 in1018.3 mb 0.68 in17.3 mm 1.20 in30.5 mm 0.68 in17.3 mm
11:40 AM 58.5°F14.7°C 55.8°F13.2°C 91% 3.3 mph ESE5.3 kmh ESE 12.5 mph20.1 kmh 30.07 in1018.3 mb 0.62 in15.7 mm 0.00 in0.0 mm 0.68 in17.3 mm
11:50 AM 59.2°F15.1°C 56.9°F13.8°C 92% 0.6 mph E1.0 kmh E 6.8 mph10.9 kmh 30.09 in1019.0 mb 0.62 in15.7 mm 0.00 in0.0 mm 0.68 in17.3 mm
12:00 PM 60.3°F15.7°C 58.2°F14.6°C 93% 1.2 mph E1.9 kmh E 6.4 mph10.3 kmh 30.09 in1019.0 mb 0.53 in13.5 mm 0.00 in0.0 mm 0.68 in17.3 mm
12:10 PM 61.5°F16.4°C 59.8°F15.4°C 94% 1.3 mph SE2.1 kmh SE 7.9 mph12.7 kmh 30.07 in1018.3 mb 0.48 in12.2 mm 0.00 in0.0 mm 0.68 in17.3 mm
12:20 PM 63.3°F17.4°C 61.6°F16.4°C 94% 4.7 mph S7.6 kmh S 13.6 mph21.9 kmh 30.07 in1018.3 mb 0.19 in4.8 mm 0.00 in0.0 mm 0.68 in17.3 mm
12:30 PM 63.9°F17.7°C 62.1°F16.7°C 94% 4.9 mph SSW7.9 kmh SSW 12.9 mph20.8 kmh 30.09 in1019.0 mb 0.00 in0.0 mm 0.00 in0.0 mm 0.68 in17.3 mm
12:40 PM 64.0°F17.8°C 61.4°F16.3°C 91% 5.7 mph SSW9.2 kmh SSW 12.9 mph20.8 kmh 30.09 in1019.0 mb 0.00 in0.0 mm 0.00 in0.0 mm 0.68 in17.3 mm
12:50 PM 64.8°F18.2°C 61.8°F16.6°C 90% 4.1 mph WSW6.6 kmh WSW 9.3 mph15.0 kmh 30.09 in1019.0 mb 0.00 in0.0 mm 0.00 in0.0 mm 0.68 in17.3 mm
01:00 PM 65.1°F18.4°C 61.8°F16.6°C 89% 4.0 mph SW6.4 kmh SW 11.8 mph19.0 kmh 30.07 in1018.3 mb 0.00 in0.0 mm 0.00 in0.0 mm 0.68 in17.3 mm
01:10 PM 65.3°F18.5°C 61.3°F16.3°C 87% 4.8 mph SW7.7 kmh SW 12.5 mph20.1 kmh 30.07 in1018.3 mb 0.00 in0.0 mm 0.00 in0.0 mm 0.68 in17.3 mm
01:20 PM 65.3°F18.5°C 60.3°F15.7°C 84% 5.3 mph WSW8.5 kmh WSW 11.8 mph19.0 kmh 30.07 in1018.3 mb 0.00 in0.0 mm 0.00 in0.0 mm 0.68 in17.3 mm
01:30 PM 65.5°F18.6°C 60.2°F15.7°C 83% 5.8 mph WSW9.3 kmh WSW 16.1 mph25.9 kmh 30.09 in1019.0 mb 0.00 in0.0 mm 0.00 in0.0 mm 0.68 in17.3 mm
01:40 PM 65.7°F18.7°C 60.0°F15.6°C 82% 4.6 mph SW7.4 kmh SW 12.5 mph20.1 kmh 30.09 in1019.0 mb 0.00 in0.0 mm 0.00 in0.0 mm 0.68 in17.3 mm
01:50 PM 66.2°F19.0°C 59.8°F15.4°C 80% 5.9 mph SSW9.5 kmh SSW 14.3 mph23.0 kmh 30.09 in1019.0 mb 0.00 in0.0 mm 0.00 in0.0 mm 0.68 in17.3 mm
02:00 PM 66.4°F19.1°C 59.3°F15.2°C 78% 6.3 mph SSW10.1 kmh SSW 14.7 mph23.7 kmh 30.09 in1019.0 mb 0.00 in0.0 mm 0.00 in0.0 mm 0.68 in17.3 mm
02:10 PM 66.6°F19.2°C 59.5°F15.3°C 78% 5.6 mph SW9.0 kmh SW 14.3 mph23.0 kmh 30.09 in1019.0 mb 0.00 in0.0 mm 0.00 in0.0 mm 0.68 in17.3 mm
02:20 PM 67.1°F19.5°C 59.6°F15.3°C 77% 5.5 mph WSW8.9 kmh WSW 13.6 mph21.9 kmh 30.09 in1019.0 mb 0.00 in0.0 mm 0.00 in0.0 mm 0.68 in17.3 mm
02:30 PM 66.9°F19.4°C 59.5°F15.3°C 77% 6.2 mph SSW10.0 kmh SSW 16.5 mph26.6 kmh 30.09 in1019.0 mb 0.00 in0.0 mm 0.00 in0.0 mm 0.68 in17.3 mm
02:40 PM 66.9°F19.4°C 59.1°F15.1°C 76% 6.1 mph SW9.8 kmh SW 16.5 mph26.6 kmh 30.09 in1019.0 mb 0.00 in0.0 mm 0.00 in0.0 mm 0.68 in17.3 mm
02:50 PM 66.9°F19.4°C 59.1°F15.1°C 76% 7.7 mph WSW12.4 kmh WSW 16.1 mph25.9 kmh 30.09 in1019.0 mb 0.00 in0.0 mm 0.00 in0.0 mm 0.68 in17.3 mm
03:00 PM 67.1°F19.5°C 58.9°F14.9°C 75% 6.2 mph SW10.0 kmh SW 13.6 mph21.9 kmh 30.12 in1020.0 mb 0.00 in0.0 mm 0.00 in0.0 mm 0.68 in17.3 mm
03:10 PM 66.7°F19.3°C 58.2°F14.6°C 74% 6.4 mph SSW10.3 kmh SSW 12.9 mph20.8 kmh 30.12 in1020.0 mb 0.00 in0.0 mm 0.00 in0.0 mm 0.68 in17.3 mm
03:20 PM 66.9°F19.4°C 58.0°F14.4°C 73% 5.7 mph SW9.2 kmh SW 14.3 mph23.0 kmh 30.12 in1020.0 mb 0.00 in0.0 mm 0.00 in0.0 mm 0.68 in17.3 mm
03:30 PM 66.9°F19.4°C 57.6°F14.2°C 72% 5.6 mph SW9.0 kmh SW 15.4 mph24.8 kmh 30.12 in1020.0 mb 0.00 in0.0 mm 0.00 in0.0 mm 0.68 in17.3 mm
03:40 PM 66.9°F19.4°C 57.6°F14.2°C 72% 5.4 mph WSW8.7 kmh WSW 13.6 mph21.9 kmh 30.12 in1020.0 mb 0.00 in0.0 mm 0.00 in0.0 mm 0.68 in17.3 mm
03:50 PM 66.7°F19.3°C 57.4°F14.1°C 72% 4.5 mph SSW7.2 kmh SSW 9.7 mph15.6 kmh 30.12 in1020.0 mb 0.00 in0.0 mm 0.00 in0.0 mm 0.68 in17.3 mm
04:00 PM 67.1°F19.5°C 57.8°F14.3°C 72% 4.9 mph SW7.9 kmh SW 10.0 mph16.1 kmh 30.12 in1020.0 mb 0.00 in0.0 mm 0.00 in0.0 mm 0.68 in17.3 mm
04:10 PM 66.9°F19.4°C 57.2°F14.0°C 71% 5.4 mph SSW8.7 kmh SSW 11.1 mph17.9 kmh 30.12 in1020.0 mb 0.00 in0.0 mm 0.00 in0.0 mm 0.68 in17.3 mm
04:20 PM 66.7°F19.3°C 57.4°F14.1°C 72% 6.2 mph S10.0 kmh S 13.6 mph21.9 kmh 30.12 in1020.0 mb 0.00 in0.0 mm 0.00 in0.0 mm 0.68 in17.3 mm
04:30 PM 66.7°F19.3°C 57.4°F14.1°C 72% 5.3 mph SW8.5 kmh SW 14.0 mph22.5 kmh 30.12 in1020.0 mb 0.00 in0.0 mm 0.00 in0.0 mm 0.68 in17.3 mm
04:40 PM 66.6°F19.2°C 57.3°F14.1°C 72% 4.9 mph WSW7.9 kmh WSW 12.5 mph20.1 kmh 30.09 in1019.0 mb 0.00 in0.0 mm 0.00 in0.0 mm 0.68 in17.3 mm
04:50 PM 66.4°F19.1°C 56.3°F13.5°C 70% 4.9 mph SSW7.9 kmh SSW 11.1 mph17.9 kmh 30.09 in1019.0 mb 0.00 in0.0 mm 0.00 in0.0 mm 0.68 in17.3 mm
05:00 PM 66.2°F19.0°C 55.3°F12.9°C 68% 3.8 mph WSW6.1 kmh WSW 9.3 mph15.0 kmh 30.12 in1020.0 mb 0.00 in0.0 mm 0.00 in0.0 mm 0.68 in17.3 mm
05:10 PM 65.7°F18.7°C 54.8°F12.7°C 68% 4.2 mph SW6.8 kmh SW 10.4 mph16.7 kmh 30.12 in1020.0 mb 0.00 in0.0 mm 0.00 in0.0 mm 0.68 in17.3 mm
05:20 PM 65.7°F18.7°C 54.4°F12.4°C 67% 5.1 mph WSW8.2 kmh WSW 11.5 mph18.5 kmh 30.12 in1020.0 mb 0.00 in0.0 mm 0.00 in0.0 mm 0.68 in17.3 mm
05:30 PM 65.3°F18.5°C 54.1°F12.3°C 67% 5.2 mph S8.4 kmh S 12.5 mph20.1 kmh 30.12 in1020.0 mb 0.00 in0.0 mm 0.00 in0.0 mm 0.68 in17.3 mm
05:40 PM 64.9°F18.3°C 54.1°F12.3°C 68% 2.5 mph S4.0 kmh S 9.7 mph15.6 kmh 30.12 in1020.0 mb 0.00 in0.0 mm 0.00 in0.0 mm 0.68 in17.3 mm
05:50 PM 64.8°F18.2°C 54.3°F12.4°C 69% 3.4 mph SSW5.5 kmh SSW 8.6 mph13.8 kmh 30.12 in1020.0 mb 0.00 in0.0 mm 0.00 in0.0 mm 0.68 in17.3 mm
06:00 PM 64.9°F18.3°C 55.3°F12.9°C 71% 2.6 mph SW4.2 kmh SW 7.9 mph12.7 kmh 30.12 in1020.0 mb 0.00 in0.0 mm 0.00 in0.0 mm 0.68 in17.3 mm
06:10 PM 64.8°F18.2°C 55.1°F12.8°C 71% 4.3 mph WSW6.9 kmh WSW 8.9 mph14.3 kmh 30.12 in1020.0 mb 0.00 in0.0 mm 0.00 in0.0 mm 0.68 in17.3 mm
06:20 PM 64.2°F17.9°C 54.6°F12.6°C 71% 1.7 mph SW2.7 kmh SW 6.4 mph10.3 kmh 30.12 in1020.0 mb 0.00 in0.0 mm 0.00 in0.0 mm 0.68 in17.3 mm
06:30 PM 63.5°F17.5°C 54.3°F12.4°C 72% 0.6 mph S1.0 kmh S 4.7 mph7.6 kmh 30.12 in1020.0 mb 0.00 in0.0 mm 0.00 in0.0 mm 0.68 in17.3 mm
06:40 PM 63.0°F17.2°C 54.2°F12.3°C 73% 1.8 mph S2.9 kmh S 8.6 mph13.8 kmh 30.12 in1020.0 mb 0.00 in0.0 mm 0.00 in0.0 mm 0.68 in17.3 mm
06:50 PM 62.6°F17.0°C 54.2°F12.3°C 74% 0.2 mph SSW0.3 kmh SSW 1.8 mph2.9 kmh 30.12 in1020.0 mb 0.00 in0.0 mm 0.00 in0.0 mm 0.68 in17.3 mm
07:00 PM 60.8°F16.0°C 52.1°F11.2°C 73% 6.6 mph S10.6 kmh S 17.2 mph27.7 kmh 30.15 in1021.0 mb 0.00 in0.0 mm 0.00 in0.0 mm 0.68 in17.3 mm
07:10 PM 58.8°F14.9°C 52.0°F11.1°C 78% 7.2 mph S11.6 kmh S 15.0 mph24.1 kmh 30.15 in1021.0 mb 0.05 in1.3 mm 0.30 in7.6 mm 0.72 in18.3 mm
07:20 PM 58.1°F14.5°C 52.0°F11.1°C 80% 6.0 mph S9.7 kmh S 14.3 mph23.0 kmh 30.15 in1021.0 mb 0.09 in2.3 mm 0.24 in6.1 mm 0.77 in19.6 mm
07:30 PM 57.6°F14.2°C 51.8°F11.0°C 81% 0.7 mph S1.1 kmh S 5.0 mph8.0 kmh 30.12 in1020.0 mb 0.09 in2.3 mm 0.00 in0.0 mm 0.77 in19.6 mm
07:40 PM 57.2°F14.0°C 51.4°F10.8°C 81% 0.1 mph S0.2 kmh S 2.1 mph3.4 kmh 30.15 in1021.0 mb 0.09 in2.3 mm 0.00 in0.0 mm 0.77 in19.6 mm
07:50 PM 56.5°F13.6°C 50.7°F10.4°C 81% 0.9 mph S1.4 kmh S 5.7 mph9.2 kmh 30.15 in1021.0 mb 0.09 in2.3 mm 0.00 in0.0 mm 0.77 in19.6 mm
08:00 PM 55.9°F13.3°C 50.2°F10.1°C 81% 1.3 mph S2.1 kmh S 7.9 mph12.7 kmh 30.15 in1021.0 mb 0.05 in1.3 mm 0.00 in0.0 mm 0.77 in19.6 mm
08:10 PM 55.4°F13.0°C 49.7°F9.8°C 81% 0.2 mph S0.3 kmh S 3.6 mph5.8 kmh 30.15 in1021.0 mb 0.05 in1.3 mm 0.00 in0.0 mm 0.77 in19.6 mm
08:20 PM 55.0°F12.8°C 49.6°F9.8°C 82% 0.7 mph S1.1 kmh S 4.7 mph7.6 kmh 30.15 in1021.0 mb 0.00 in0.0 mm 0.00 in0.0 mm 0.77 in19.6 mm
08:30 PM 54.7°F12.6°C 49.3°F9.6°C 82% 1.1 mph S1.8 kmh S 6.1 mph9.8 kmh 30.15 in1021.0 mb 0.00 in0.0 mm 0.00 in0.0 mm 0.77 in19.6 mm
08:40 PM 54.3°F12.4°C 49.3°F9.6°C 83% 1.1 mph S1.8 kmh S 5.0 mph8.0 kmh 30.15 in1021.0 mb 0.00 in0.0 mm 0.00 in0.0 mm 0.77 in19.6 mm
08:50 PM 54.1°F12.3°C 49.4°F9.7°C 84% 1.2 mph S1.9 kmh S 5.4 mph8.7 kmh 30.15 in1021.0 mb 0.00 in0.0 mm 0.00 in0.0 mm 0.77 in19.6 mm
09:00 PM 54.3°F12.4°C 49.9°F9.9°C 85% 2.3 mph S3.7 kmh S 9.3 mph15.0 kmh 30.15 in1021.0 mb 0.00 in0.0 mm 0.00 in0.0 mm 0.77 in19.6 mm
09:10 PM 54.7°F12.6°C 50.6°F10.3°C 86% 3.2 mph S5.1 kmh S 9.3 mph15.0 kmh 30.15 in1021.0 mb 0.00 in0.0 mm 0.00 in0.0 mm 0.77 in19.6 mm
09:20 PM 54.7°F12.6°C 50.6°F10.3°C 86% 1.9 mph S3.1 kmh S 5.7 mph9.2 kmh 30.15 in1021.0 mb 0.00 in0.0 mm 0.00 in0.0 mm 0.77 in19.6 mm
09:30 PM 54.7°F12.6°C 50.6°F10.3°C 86% 0.8 mph S1.3 kmh S 5.7 mph9.2 kmh 30.18 in1022.0 mb 0.00 in0.0 mm 0.00 in0.0 mm 0.77 in19.6 mm
09:40 PM 54.5°F12.5°C 50.4°F10.2°C 86% 0.5 mph S0.8 kmh S 4.7 mph7.6 kmh 30.15 in1021.0 mb 0.00 in0.0 mm 0.00 in0.0 mm 0.77 in19.6 mm
09:50 PM 54.3°F12.4°C 50.2°F10.1°C 86% 0.3 mph S0.5 kmh S 2.5 mph4.0 kmh 30.15 in1021.0 mb 0.00 in0.0 mm 0.00 in0.0 mm 0.77 in19.6 mm
10:00 PM 54.0°F12.2°C 49.9°F9.9°C 86% 0.5 mph S0.8 kmh S 5.7 mph9.2 kmh 30.15 in1021.0 mb 0.00 in0.0 mm 0.00 in0.0 mm 0.77 in19.6 mm
10:10 PM 53.8°F12.1°C 49.7°F9.8°C 86% 0.1 mph S0.2 kmh S 3.6 mph5.8 kmh 30.15 in1021.0 mb 0.00 in0.0 mm 0.00 in0.0 mm 0.77 in19.6 mm
10:20 PM 54.1°F12.3°C 50.4°F10.2°C 87% 0.5 mph S0.8 kmh S 7.5 mph12.1 kmh 30.15 in1021.0 mb 0.00 in0.0 mm 0.00 in0.0 mm 0.77 in19.6 mm
10:30 PM 54.0°F12.2°C 50.2°F10.1°C 87% 0.5 mph SE0.8 kmh SE 4.7 mph7.6 kmh 30.15 in1021.0 mb 0.00 in0.0 mm 0.00 in0.0 mm 0.77 in19.6 mm
10:40 PM 53.8°F12.1°C 50.0°F10.0°C 87% 0.1 mph SE0.2 kmh SE 2.1 mph3.4 kmh 30.15 in1021.0 mb 0.00 in0.0 mm 0.00 in0.0 mm 0.77 in19.6 mm
10:50 PM 53.4°F11.9°C 49.6°F9.8°C 87% Calm Calm -- 30.15 in1021.0 mb 0.00 in0.0 mm 0.00 in0.0 mm 0.77 in19.6 mm
11:00 PM 53.1°F11.7°C 49.3°F9.6°C 87% Calm Calm -- 30.18 in1022.0 mb 0.00 in0.0 mm 0.00 in0.0 mm 0.77 in19.6 mm
11:10 PM 52.7°F11.5°C 48.9°F9.4°C 87% Calm Calm -- 30.18 in1022.0 mb 0.00 in0.0 mm 0.00 in0.0 mm 0.77 in19.6 mm
11:20 PM 52.5°F11.4°C 48.8°F9.3°C 87% Calm Calm -- 30.18 in1022.0 mb 0.00 in0.0 mm 0.00 in0.0 mm 0.77 in19.6 mm
11:30 PM 52.7°F11.5°C 49.2°F9.6°C 88% Calm Calm -- 30.18 in1022.0 mb 0.00 in0.0 mm 0.00 in0.0 mm 0.77 in19.6 mm
11:40 PM 53.2°F11.8°C 50.1°F10.1°C 89% Calm Calm -- 30.18 in1022.0 mb 0.00 in0.0 mm 0.00 in0.0 mm 0.77 in19.6 mm
11:50 PM 53.2°F11.8°C 50.1°F10.1°C 89% Calm Calm -- 30.18 in1022.0 mb 0.00 in0.0 mm 0.00 in0.0 mm 0.77 in19.6 mm